Weather at Hajdúszoboszló Airport

Public forecast

Using degrees Celsius for public forecast. Weather courtesy of forecast.io.

Closest aviation weather report (METAR) to Hajdúszoboszló Airport

Closest report is Debrecen International Airport, 9.3 nm (17.2 km) E. Retrieved 2020/10/01 03:15 UTC (6 minutes ago):

LHDC 010315Z AUTO 30003KT 6000 FEW011 BKN098 12/12 Q1004

Closest aviation forecast (TAF) to Hajdúszoboszló Airport

Forecast is more than 12 hours old.

Closest forecast is Debrecen International Airport, 9.3 nm (17.2 km) E. Retrieved 2019/12/01 21:12 UTC (10 months ago):

TAF TAF LHDC 010000Z 3021/0106 CNL